Nearby METAR Reports

 

GCLP - Las Palmas/Gando, Spain
Distance from station: NE 26km
Updated: 23/06/2024 20:00
Few Clouds
Few Clouds
 Wind from NNE
Wind: NNE 50 km/h
Temperature: 22°C
Dew Point: 16°C
Humidity: 69%
Barometer: 1014 hPa
Clouds: Few Clouds
Visibility: 10 km
Cloud details: Few Clouds 1067 m
2024/06/23 20:00 GCLP 232000Z 02027KT 9999 FEW035 22/16 Q1014 NOSIG
GCTS - Tenerife Sur/Rei, Spain
Distance from station: WNW 102km
Updated: 23/06/2024 20:00
Few Clouds
Few Clouds
 Wind from WSW
Wind: WSW 11 km/h
Temperature: 22°C
Dew Point: 18°C
Humidity: 78%
Barometer: 1015 hPa
Clouds: Few Clouds
Visibility: 10 km
Cloud details: Few Clouds 914 m
2024/06/23 20:00 GCTS 232000Z 24006KT 200V260 9999 FEW030 22/18 Q1015 NOSIG
 
GCXO - Tenerife/Los Rod, Spain
Distance from station: NW 110km
Updated: 23/06/2024 20:00
Patches of fog, Mostly cloudy
Patches of fog, Mostly cloudy
 Wind from WNW
Wind: WNW 35 km/h
Temperature: 17°C
Dew Point: 16°C
Humidity: 94%
Barometer: 1018 hPa
Summary: Patches of Fog
Clouds: Mostly cloudy
Visibility: 8 km
Cloud details: Few Clouds 0 m
Mostly cloudy 122 m
2024/06/23 20:00 GCXO 232000Z 30019KT 8000 3500NW BCFG FEW000 BKN004 17/16 Q1018 NOSIG
GCGM - La Gomera Arpt, Spain
Distance from station: W 164km
Updated: 23/06/2024 20:00
Clear
Clear
 Wind from SW
Wind: SW 7 km/h
Temperature: 21°C
Dew Point: 16°C
Humidity: 73%
Barometer: 1015 hPa
Summary: Clear
Visibility: greater than 10 km
2024/06/23 20:00 GCGM 232000Z AUTO 23004KT 200V260 CAVOK 21/16 Q1015 RMK R09/VRB02KT ARP/21003KT 140V250
 
GCFV - Fuerteventura Ar, Spain
Distance from station: ENE 183km
Updated: 23/06/2024 20:00
Few Clouds
Few Clouds
 Wind from N
Wind: N 30 km/h
Temperature: 22°C
Dew Point: 17°C
Humidity: 73%
Barometer: 1013 hPa
Clouds: Few Clouds
Visibility: 10 km
Cloud details: Few Clouds 610 m
2024/06/23 20:00 GCFV 232000Z 36016KT 9999 FEW020 22/17 Q1013
GCHI - Hierro Airport, Spain
Distance from station: W 226km
Updated: 23/06/2024 20:00
Partly cloudy
Partly cloudy
 Wind from NNW
Wind: NNW 37 km/h
Temperature: 22°C
Dew Point: 17°C
Humidity: 73%
Barometer: 1016 hPa
Clouds: Partly cloudy
Visibility: 10 km
Cloud details: Partly cloudy 640 m
2024/06/23 20:00 GCHI 232000Z AUTO 34020KT 9999 SCT021 22/17 Q1016
 
GCLA - La Palma Airport, Spain
Distance from station: WNW 233km
Updated: 23/06/2024 20:00
Few Clouds
Few Clouds
 Wind from NNE
Wind: NNE 30 km/h, Gust: 48 km/h
Temperature: 22°C
Dew Point: 17°C
Humidity: 73%
Barometer: 1016 hPa
Clouds: Few Clouds
Visibility: 10 km
Cloud details: Few Clouds 914 m
2024/06/23 20:00 GCLA 232000Z 03016G26KT 350V060 9999 FEW030 22/17 Q1016
GCRR - Arrecife/Lanzaro, Spain
Distance from station: NE 234km
Updated: 23/06/2024 20:00
Partly cloudy
Partly cloudy
 Wind from N
Wind: N 28 km/h, Gust: 48 km/h
Temperature: 21°C
Dew Point: 17°C
Humidity: 78%
Barometer: 1013 hPa
Clouds: Partly cloudy
Visibility: 10 km
Cloud details: Partly cloudy 457 m
2024/06/23 20:00 GCRR 232000Z 36015G26KT 330V030 9999 SCT015 21/17 Q1013
 
LPMA - Funchal/Madeira, Portugal
Distance from station: NNW 556km
Updated: 23/06/2024 20:00
Partly cloudy
Partly cloudy
 Wind from NNE
Wind: NNE 31 km/h
Temperature: 21°C
Dew Point: 16°C
Humidity: 73%
Barometer: 1018 hPa
Clouds: Partly cloudy
Visibility: 10 km
Cloud details: Partly cloudy 457 m
2024/06/23 20:00 LPMA 232000Z 02017KT 330V040 9999 SCT015 21/16 Q1018
LPPS - Porto Santo Isla, Portugal
Distance from station: N 594km
Updated: 23/06/2024 20:00
Mostly cloudy
Mostly cloudy
 Wind from N
Wind: N 22 km/h
Temperature: 19°C
Dew Point: 17°C
Humidity: 88%
Barometer: 1019 hPa
Clouds: Mostly cloudy
Visibility: 10 km
Cloud details: Partly cloudy 366 m
Mostly cloudy 914 m
2024/06/23 20:00 LPPS 232000Z 01012KT 9999 SCT012 BKN030 19/17 Q1019